Time;durP1;ratioP1;P1;durP2;ratioP2;P2;SDS_P1;SDS_P2;PMS_P1;PMS_P2;Temp;Humidity;BMP_temperature;BMP_pressure;BME280_temperature;BME280_humidity;BME280_pressure;Samples;Min_cycle;Max_cycle;Signal;HPM_P1;HPM_P2
2022/05/22 00:00:43;;;;;;;8.18;3.70;;;;;;;15.75;77.63;96504.41;5050582;28;20407;-57
2022/05/22 00:03:10;;;;;;;6.75;3.67;;;;;;;15.33;80.33;96476.94;5063684;28;20052;-56
2022/05/22 00:05:37;;;;;;;5.45;3.47;;;;;;;15.76;79.29;96505.97;5045409;28;20518;-56
2022/05/22 00:08:04;;;;;;;7.82;4.03;;;;;;;15.89;78.87;96504.22;5063357;28;20076;-55
2022/05/22 00:10:31;;;;;;;5.75;4.07;;;;;;;15.93;77.97;96498.59;5063015;28;20059;-56
2022/05/22 00:12:57;;;;;;;4.47;4.00;;;;;;;15.71;77.33;96428.22;5044819;28;20423;-56
2022/05/22 00:15:24;;;;;;;4.80;3.30;;;;;;;16.33;76.71;96504.03;5063276;28;20052;-55
2022/05/22 00:17:51;;;;;;;4.88;4.03;;;;;;;16.25;76.54;96477.38;5063302;28;20075;-55
2022/05/22 00:20:18;;;;;;;6.95;3.90;;;;;;;16.55;75.66;96491.34;5063596;28;20061;-56
2022/05/22 00:22:44;;;;;;;5.70;3.88;;;;;;;16.56;75.50;96484.56;5063222;28;20048;-55
2022/05/22 00:25:11;;;;;;;4.55;3.55;;;;;;;16.74;74.77;96487.06;5062947;28;20044;-55
2022/05/22 00:27:40;;;;;;;4.15;3.75;;;;;;;16.74;74.43;96481.47;5063240;28;20049;-56
2022/05/22 00:30:10;;;;;;;5.43;4.35;;;;;;;16.46;74.07;96437.19;5045098;28;20080;-55
2022/05/22 00:32:37;;;;;;;4.20;3.90;;;;;;;16.59;75.32;96497.69;5063003;28;20079;-55
2022/05/22 00:35:05;;;;;;;4.30;3.92;;;;;;;16.01;75.28;96393.94;5045002;28;20048;-56
2022/05/22 00:37:32;;;;;;;4.22;3.90;;;;;;;15.80;79.56;96492.75;5045262;28;20124;-55
2022/05/22 00:39:59;;;;;;;6.05;3.97;;;;;;;15.76;80.62;96497.59;5062708;28;20053;-56
2022/05/22 00:42:26;;;;;;;5.35;3.63;;;;;;;15.29;79.46;96389.66;5062948;28;20059;-55
2022/05/22 00:44:53;;;;;;;7.68;4.28;;;;;;;16.02;79.40;96491.28;5062617;28;20048;-56
2022/05/22 00:47:21;;;;;;;6.55;5.15;;;;;;;16.01;79.29;96484.09;5047734;28;20049;-55
2022/05/22 00:49:49;;;;;;;6.90;4.35;;;;;;;16.11;78.62;96483.19;5048762;28;20061;-56
2022/05/22 00:52:24;;;;;;;5.07;4.00;;;;;;;16.05;78.52;96462.50;5066311;28;20048;-57
2022/05/22 00:54:59;;;;;;;8.48;4.28;;;;;;;16.18;78.29;96477.50;5065997;28;20232;-55
2022/05/22 00:57:38;;;;;;;5.70;3.58;;;;;;;16.21;78.63;96468.28;5066546;28;20056;-56
2022/05/22 01:00:14;;;;;;;6.22;4.00;;;;;;;16.33;76.23;96473.28;5064008;28;20068;-57
2022/05/22 01:05:27;;;;;;;6.75;4.28;;;;;;;15.88;79.98;96485.09;5046545;28;20061;-55
2022/05/22 01:07:57;;;;;;;7.05;4.20;;;;;;;15.99;79.77;96486.53;5046030;28;20051;-57
2022/05/22 01:10:32;;;;;;;4.03;3.72;;;;;;;16.02;79.58;96480.13;5046046;28;20049;-56
2022/05/22 01:13:00;;;;;;;5.25;3.05;;;;;;;15.28;79.35;96362.97;5028293;28;20060;-56
2022/05/22 01:15:26;;;;;;;5.88;3.92;;;;;;;15.80;79.82;96484.38;5045978;28;20064;-55
2022/05/22 01:17:53;;;;;;;6.20;4.43;;;;;;;15.99;79.46;96464.19;5046295;28;20064;-55
2022/05/22 01:20:20;;;;;;;6.43;4.70;;;;;;;15.67;81.39;96471.38;5028195;28;20060;-56
2022/05/22 01:22:47;;;;;;;5.35;3.85;;;;;;;14.14;84.67;96319.94;5028259;28;20049;-56
2022/05/22 01:25:13;;;;;;;5.20;4.13;;;;;;;15.47;83.71;96482.38;5045813;28;20075;-55
2022/05/22 01:27:40;;;;;;;6.90;4.07;;;;;;;15.59;82.40;96483.84;5045645;28;20064;-58
2022/05/22 01:30:20;;;;;;;5.03;4.18;;;;;;;15.80;80.70;96473.22;5027736;28;20071;-55
2022/05/22 01:32:49;;;;;;;4.28;3.70;;;;;;;16.07;78.12;96476.84;5045806;28;20044;-55
2022/05/22 01:35:27;;;;;;;9.80;5.05;;;;;;;16.07;78.67;96476.84;5028215;28;20072;-57
2022/05/22 01:37:55;;;;;;;4.90;4.18;;;;;;;16.23;77.60;96468.63;5045856;28;20057;-56
2022/05/22 01:40:22;;;;;;;5.63;4.32;;;;;;;16.38;75.73;96481.19;5045511;28;20052;-55
2022/05/22 01:42:50;;;;;;;6.13;4.18;;;;;;;15.56;75.58;96334.72;5045632;28;20057;-55
2022/05/22 01:45:20;;;;;;;5.65;4.32;;;;;;;16.63;74.62;96463.28;5045223;28;20049;-54
2022/05/22 01:47:47;;;;;;;4.57;3.97;;;;;;;16.51;75.62;96468.25;5028045;28;20154;-53
2022/05/22 01:50:14;;;;;;;5.32;4.00;;;;;;;16.64;74.27;96455.25;5045159;28;20056;-55
2022/05/22 01:52:41;;;;;;;4.10;3.70;;;;;;;16.71;73.77;96453.56;5045432;28;20060;-54
2022/05/22 01:55:10;;;;;;;4.88;3.88;;;;;;;16.91;72.49;96446.03;5065523;28;20450;-54
2022/05/22 01:57:37;;;;;;;6.95;4.32;;;;;;;16.61;72.09;96397.38;5064092;28;20048;-54
2022/05/22 02:00:07;;;;;;;8.40;4.00;;;;;;;16.80;71.91;96434.22;5064584;28;20590;-55
2022/05/22 02:02:34;;;;;;;4.80;3.95;;;;;;;17.10;72.41;96459.28;5065651;28;20048;-54
2022/05/22 02:05:02;;;;;;;4.07;3.78;;;;;;;17.12;72.45;96445.66;5064797;28;20056;-55
2022/05/22 02:10:15;;;;;;;4.65;3.97;;;;;;;17.14;71.09;96448.81;5065014;28;20063;-54
2022/05/22 02:12:42;;;;;;;8.18;4.45;;;;;;;17.17;71.87;96442.34;5065430;28;20109;-54
2022/05/22 02:15:09;;;;;;;11.90;4.38;;;;;;;17.28;69.90;96442.94;5046698;28;20507;-54
2022/05/22 02:17:36;;;;;;;5.78;4.03;;;;;;;17.18;68.80;96421.56;5065061;28;20434;-54
2022/05/22 02:20:04;;;;;;;6.65;4.25;;;;;;;17.28;67.58;96442.94;5064805;28;20067;-55
2022/05/22 02:22:31;;;;;;;4.38;3.97;;;;;;;17.37;66.91;96471.97;5046764;28;20048;-56
2022/05/22 02:24:57;;;;;;;5.13;3.80;;;;;;;15.31;67.89;96110.22;5047064;28;20338;-54
2022/05/22 02:27:24;;;;;;;4.22;3.83;;;;;;;17.23;70.04;96443.47;5064663;28;20212;-54
2022/05/22 02:29:50;;;;;;;7.07;4.28;;;;;;;17.20;70.41;96413.53;5064270;28;20055;-55
2022/05/22 02:32:17;;;;;;;4.68;4.28;;;;;;;17.29;69.27;96438.94;5064972;28;20461;-54
2022/05/22 02:34:44;;;;;;;6.40;3.92;;;;;;;17.17;69.88;96419.97;5064414;28;20045;-56
2022/05/22 02:37:10;;;;;;;4.72;3.67;;;;;;;17.20;68.65;96447.13;5064180;28;20053;-55
2022/05/22 02:39:37;;;;;;;5.22;4.13;;;;;;;17.33;68.05;96445.25;5064361;28;20059;-57
2022/05/22 02:42:05;;;;;;;4.93;4.15;;;;;;;17.20;67.00;96431.09;5046563;28;20057;-55
2022/05/22 02:44:33;;;;;;;6.15;4.15;;;;;;;17.31;64.98;96398.09;5064265;28;20416;-55
2022/05/22 02:47:00;;;;;;;3.70;3.40;;;;;;;17.59;64.56;96424.78;5064520;28;20055;-55
2022/05/22 02:49:26;;;;;;;4.20;3.80;;;;;;;17.75;63.12;96445.22;5064106;28;20717;-55
2022/05/22 02:51:53;;;;;;;4.90;3.92;;;;;;;17.84;63.54;96428.66;5063859;28;20321;-55
2022/05/22 02:54:21;;;;;;;4.55;3.85;;;;;;;17.85;64.22;96427.41;5064089;28;20056;-55
2022/05/22 02:56:48;;;;;;;6.85;4.03;;;;;;;17.93;64.80;96453.28;5063881;28;20050;-54
2022/05/22 02:59:14;;;;;;;4.85;4.35;;;;;;;17.75;65.46;96427.66;5063974;28;20507;-55
2022/05/22 03:01:41;;;;;;;4.32;4.03;;;;;;;17.77;67.01;96430.78;5031200;28;20044;-56
2022/05/22 03:04:08;;;;;;;6.20;4.20;;;;;;;17.84;66.50;96447.47;5044175;28;20412;-55
2022/05/22 03:06:40;;;;;;;5.25;4.10;;;;;;;17.89;65.87;96439.31;5044211;28;20055;-56
2022/05/22 03:09:13;;;;;;;6.07;3.53;;;;;;;17.32;65.28;96326.09;5044246;28;20059;-55
2022/05/22 03:11:41;;;;;;;6.37;4.00;;;;;;;17.66;64.69;96374.19;5044258;28;20482;-56
2022/05/22 03:14:09;;;;;;;5.25;3.90;;;;;;;18.12;64.06;96435.63;5043930;28;20518;-56
2022/05/22 03:16:36;;;;;;;7.38;4.07;;;;;;;17.99;63.11;96427.09;5025988;28;20140;-55
2022/05/22 03:19:03;;;;;;;5.22;4.00;;;;;;;17.51;64.60;96351.31;5043607;28;20044;-56
2022/05/22 03:21:30;;;;;;;5.25;4.30;;;;;;;18.01;64.56;96426.66;5044054;28;20064;-55
2022/05/22 03:23:57;;;;;;;4.72;3.60;;;;;;;17.83;64.12;96401.06;5043758;28;20064;-56
2022/05/22 03:26:24;;;;;;;5.65;4.45;;;;;;;17.85;65.10;96424.63;5044028;28;20538;-56
2022/05/22 03:28:50;;;;;;;3.97;3.65;;;;;;;18.11;65.30;96448.09;5026018;28;20059;-55
2022/05/22 03:31:17;;;;;;;8.05;4.28;;;;;;;17.38;65.54;96324.38;5043727;28;20115;-57
2022/05/22 03:33:43;;;;;;;4.82;3.85;;;;;;;17.62;65.50;96401.50;5025727;28;20057;-55
2022/05/22 03:36:11;;;;;;;4.07;3.75;;;;;;;17.94;65.44;96471.69;5043450;28;20068;-55
2022/05/22 03:38:38;;;;;;;4.13;3.83;;;;;;;18.04;64.52;96414.59;5025895;28;20049;-55
2022/05/22 03:41:05;;;;;;;6.68;3.83;;;;;;;18.52;63.62;96436.34;5043529;28;20065;-56
2022/05/22 03:43:31;;;;;;;4.38;4.05;;;;;;;18.06;63.65;96370.09;5043102;28;20098;-56
2022/05/22 03:45:58;;;;;;;7.15;4.10;;;;;;;18.02;62.56;96369.38;5043471;28;20060;-55
2022/05/22 03:48:25;;;;;;;6.95;4.95;;;;;;;18.40;62.67;96404.16;5043394;28;20052;-56
2022/05/22 03:50:52;;;;;;;5.55;4.28;;;;;;;18.40;62.14;96440.63;5043607;28;20542;-58
2022/05/22 03:53:18;;;;;;;4.72;3.75;;;;;;;18.48;62.26;96436.44;5048459;28;20511;-56
2022/05/22 03:55:47;;;;;;;5.88;4.35;;;;;;;18.49;61.26;96432.41;5063185;28;20052;-56
2022/05/22 03:58:16;;;;;;;3.33;3.10;;;;;;;18.78;58.28;96440.94;5063006;28;20083;-56
2022/05/22 04:00:43;;;;;;;6.40;3.85;;;;;;;18.93;58.26;96434.53;5063119;28;20056;-56
2022/05/22 04:03:10;;;;;;;7.90;5.13;;;;;;;19.25;58.40;96428.84;5063190;28;20473;-55
2022/05/22 04:05:37;;;;;;;4.90;4.40;;;;;;;19.44;59.33;96463.72;5063678;28;20131;-56
2022/05/22 04:08:05;;;;;;;3.97;3.58;;;;;;;19.38;57.06;96471.88;5063430;28;20048;-56
2022/05/22 04:10:32;;;;;;;7.43;4.25;;;;;;;19.65;55.85;96439.88;5063345;28;20048;-56
2022/05/22 04:12:58;;;;;;;4.80;3.75;;;;;;;19.89;52.31;96404.59;5063305;28;20351;-56
2022/05/22 04:15:25;;;;;;;5.05;3.65;;;;;;;19.52;52.08;96339.44;5063254;28;20060;-54
2022/05/22 04:17:52;;;;;;;4.60;3.90;;;;;;;20.37;51.08;96418.44;5063290;28;20055;-56
2022/05/22 04:20:19;;;;;;;4.82;4.07;;;;;;;20.38;50.34;96391.88;5063410;28;20060;-57
2022/05/22 04:25:31;;;;;;;4.68;4.18;;;;;;;20.99;48.24;96415.59;5066757;28;20048;-56
2022/05/22 04:27:57;;;;;;;7.53;4.47;;;;;;;20.77;49.34;96357.63;5067007;28;20506;-55
2022/05/22 04:30:24;;;;;;;4.00;3.70;;;;;;;20.92;50.39;96378.41;5066585;28;20071;-55
2022/05/22 04:32:52;;;;;;;7.70;3.92;;;;;;;21.36;48.95;96404.66;5066652;28;20048;-55
2022/05/22 04:35:21;;;;;;;6.38;4.30;;;;;;;21.70;43.20;96425.19;5066561;28;20056;-55
2022/05/22 04:37:48;;;;;;;6.35;4.57;;;;;;;22.04;45.53;96444.88;5067174;28;20101;-57
2022/05/22 04:40:14;;;;;;;5.03;4.63;;;;;;;22.19;48.43;96445.91;5066341;28;20052;-56
2022/05/22 04:42:41;;;;;;;6.55;4.30;;;;;;;22.10;48.59;96431.75;5066519;28;20045;-56
2022/05/22 04:45:09;;;;;;;5.07;4.28;;;;;;;21.95;49.19;96447.66;5048496;28;20080;-58
2022/05/22 04:47:41;;;;;;;8.50;4.32;;;;;;;21.95;49.47;96436.38;5048837;28;20054;-56
2022/05/22 04:50:09;;;;;;;6.38;4.75;;;;;;;22.02;50.53;96455.06;5066505;28;20510;-56
2022/05/22 04:52:36;;;;;;;5.47;3.92;;;;;;;22.03;50.63;96443.31;5066926;28;20055;-57
2022/05/22 04:55:04;;;;;;;4.63;4.18;;;;;;;22.18;48.66;96452.81;5065887;28;20546;-56
2022/05/22 04:57:30;;;;;;;5.10;4.15;;;;;;;22.40;48.20;96462.03;5048485;28;20053;-55
2022/05/22 04:59:58;;;;;;;4.72;3.85;;;;;;;22.18;48.74;96427.41;5065914;28;20322;-56
2022/05/22 05:02:24;;;;;;;6.50;4.25;;;;;;;22.16;48.04;96417.84;5065890;28;20541;-55
2022/05/22 05:04:55;;;;;;;4.85;4.45;;;;;;;22.72;48.48;96482.59;5066054;28;20520;-55
2022/05/22 05:07:22;;;;;;;5.22;4.32;;;;;;;22.66;48.89;96478.81;5066454;28;20520;-55
2022/05/22 05:09:49;;;;;;;5.53;4.53;;;;;;;22.79;49.24;96482.34;5066082;28;20060;-56
2022/05/22 05:12:17;;;;;;;6.32;5.35;;;;;;;23.04;49.93;96460.31;5066235;28;20055;-53
2022/05/22 05:14:45;;;;;;;11.32;6.18;;;;;;;22.67;49.54;96446.53;5048170;28;20056;-56
2022/05/22 05:17:15;;;;;;;7.70;6.97;;;;;;;23.10;49.47;96466.13;5065960;28;20056;-54
2022/05/22 05:19:42;;;;;;;10.52;5.15;;;;;;;23.33;50.00;96459.94;5065431;28;20522;-55
2022/05/22 05:22:09;;;;;;;5.22;4.80;;;;;;;23.24;49.01;96435.22;5065840;28;20048;-55
2022/05/22 05:24:37;;;;;;;6.38;5.25;;;;;;;23.47;46.77;96470.63;5066044;28;20055;-56
2022/05/22 05:27:04;;;;;;;6.72;5.25;;;;;;;23.42;46.47;96424.00;5066436;28;20110;-55
2022/05/22 05:29:51;;;;;;;4.90;4.40;;;;;;;23.38;47.61;96397.91;5066582;28;20621;-54
2022/05/22 05:32:19;;;;;;;5.68;4.93;;;;;;;24.07;43.84;96457.50;5065238;28;20056;-55
2022/05/22 05:34:46;;;;;;;5.13;4.10;;;;;;;24.28;44.31;96461.38;5065330;28;20067;-55
2022/05/22 05:37:13;;;;;;;4.20;3.88;;;;;;;24.25;43.84;96422.72;5047631;28;20048;-55
2022/05/22 05:39:39;;;;;;;4.95;4.55;;;;;;;24.90;41.05;96440.59;5065152;28;20044;-56
2022/05/22 05:42:06;;;;;;;7.00;4.68;;;;;;;25.34;40.92;96452.19;5065151;28;20044;-56
2022/05/22 05:44:34;;;;;;;5.55;4.95;;;;;;;25.70;40.82;96456.84;5065625;28;20052;-57
2022/05/22 05:47:01;;;;;;;6.65;4.50;;;;;;;26.13;37.96;96453.38;5065834;28;20052;-56
2022/05/22 05:49:28;;;;;;;4.90;4.50;;;;;;;26.22;37.30;96430.56;5065190;28;20506;-56
2022/05/22 05:51:55;;;;;;;4.72;4.43;;;;;;;26.56;40.17;96461.13;5065394;28;20470;-56
2022/05/22 05:54:34;;;;;;;6.65;5.75;;;;;;;26.33;41.92;96431.56;5065403;28;20065;-55
2022/05/22 05:57:01;;;;;;;6.93;6.32;;;;;;;26.88;41.67;96465.84;5046948;28;20074;-55
2022/05/22 05:59:28;;;;;;;5.32;5.03;;;;;;;27.11;39.20;96464.16;5047308;28;20060;-55
2022/05/22 06:01:55;;;;;;;5.43;5.13;;;;;;;27.21;37.94;96460.69;5049694;28;20053;-56
2022/05/22 06:04:21;;;;;;;5.30;4.90;;;;;;;27.34;37.25;96458.31;5045090;28;20052;-55
2022/05/22 06:06:48;;;;;;;9.77;6.38;;;;;;;27.42;36.71;96453.78;5044942;28;20128;-56
2022/05/22 06:09:15;;;;;;;5.53;4.78;;;;;;;27.54;34.98;96460.41;5027347;28;20053;-55
2022/05/22 06:11:43;;;;;;;5.05;4.75;;;;;;;27.62;35.02;96455.84;5027065;28;20048;-58
2022/05/22 06:14:10;;;;;;;6.00;5.22;;;;;;;27.26;34.78;96462.84;5044770;28;20049;-55
2022/05/22 06:16:37;;;;;;;4.57;4.38;;;;;;;25.58;36.56;96446.50;5027313;28;20496;-57
2022/05/22 06:19:04;;;;;;;5.55;4.95;;;;;;;26.11;37.06;96459.53;5045084;28;20056;-57
2022/05/22 06:21:31;;;;;;;5.28;4.60;;;;;;;25.79;36.49;96456.78;5026551;28;20064;-56
2022/05/22 06:23:57;;;;;;;5.38;4.55;;;;;;;26.06;37.22;96456.56;5026662;28;20075;-56
2022/05/22 06:26:24;;;;;;;5.85;5.47;;;;;;;26.40;37.54;96455.91;5044402;28;20056;-57
2022/05/22 06:28:51;;;;;;;6.20;4.65;;;;;;;26.63;37.29;96449.38;5044513;28;20057;-55
2022/05/22 06:31:18;;;;;;;7.18;5.00;;;;;;;26.89;35.21;96450.34;5044099;28;20056;-58
2022/05/22 06:33:45;;;;;;;5.18;4.68;;;;;;;27.00;33.98;96444.06;5044739;28;20127;-56
2022/05/22 06:36:15;;;;;;;4.82;4.63;;;;;;;26.86;34.26;96411.53;5044918;28;20057;-55
2022/05/22 06:41:27;;;;;;;5.22;4.80;;;;;;;26.59;31.01;96443.88;5044459;28;20374;-55
2022/05/22 06:43:54;;;;;;;5.25;4.50;;;;;;;27.12;30.63;96440.91;5043750;28;20150;-55
2022/05/22 06:46:31;;;;;;;5.20;4.80;;;;;;;27.14;29.65;96449.69;5044351;28;20060;-56
2022/05/22 06:48:59;;;;;;;4.70;4.40;;;;;;;26.94;29.59;96418.38;5044508;28;20061;-55
2022/05/22 06:51:25;;;;;;;5.22;4.93;;;;;;;26.99;29.36;96443.28;5026739;28;20060;-55
2022/05/22 06:53:52;;;;;;;5.28;4.88;;;;;;;27.04;29.60;96430.41;5054570;28;20481;-55
2022/05/22 06:56:19;;;;;;;4.93;4.60;;;;;;;27.20;28.49;96393.72;5064227;28;20496;-57
2022/05/22 06:58:46;;;;;;;8.05;5.20;;;;;;;27.70;28.25;96429.31;5064114;28;20056;-57
2022/05/22 07:01:17;;;;;;;8.13;4.95;;;;;;;27.48;28.58;96423.34;5063742;28;20052;-56
2022/05/22 07:03:43;;;;;;;4.55;4.35;;;;;;;26.92;28.30;96364.06;5063990;28;20067;-55
2022/05/22 07:06:10;;;;;;;5.22;4.80;;;;;;;27.21;29.21;96426.56;5064080;28;20102;-58
2022/05/22 07:08:37;;;;;;;5.25;4.35;;;;;;;27.34;29.50;96418.50;5064582;28;20609;-55
2022/05/22 07:13:49;;;;;;;4.68;4.47;;;;;;;27.20;28.59;96356.72;5064413;28;20496;-55
2022/05/22 07:16:16;;;;;;;5.18;4.82;;;;;;;27.52;28.38;96408.91;5063903;28;20063;-56
2022/05/22 07:18:51;;;;;;;5.50;4.32;;;;;;;27.31;28.62;96419.50;5047167;28;20048;-56
2022/05/22 07:21:18;;;;;;;4.57;4.32;;;;;;;26.79;29.01;96360.78;5031118;28;20068;-55
2022/05/22 07:23:45;;;;;;;5.00;4.60;;;;;;;26.90;29.50;96414.97;5055601;28;20470;-56
2022/05/22 07:26:15;;;;;;;4.85;4.55;;;;;;;26.38;29.93;96364.75;5063461;28;20066;-56
2022/05/22 07:28:42;;;;;;;4.82;4.57;;;;;;;26.76;29.53;96412.94;5045450;28;20048;-58
2022/05/22 07:31:14;;;;;;;5.63;4.07;;;;;;;26.52;29.70;96398.03;5045381;28;20049;-56
2022/05/22 07:33:41;;;;;;;4.88;4.57;;;;;;;26.64;29.53;96388.44;5063568;28;20560;-56
2022/05/22 07:36:08;;;;;;;4.50;4.20;;;;;;;26.79;27.66;96417.63;5045592;28;20075;-57
2022/05/22 07:38:35;;;;;;;5.20;4.80;;;;;;;26.73;28.55;96399.69;5063167;28;20045;-57
2022/05/22 07:41:01;;;;;;;4.60;4.30;;;;;;;26.72;28.69;96392.44;5045193;28;20499;-55
2022/05/22 07:43:28;;;;;;;4.45;4.28;;;;;;;26.60;29.65;96393.53;5063057;28;20052;-58
2022/05/22 07:45:55;;;;;;;5.25;4.85;;;;;;;26.50;29.95;96400.59;5063213;28;20082;-59
2022/05/22 07:48:22;;;;;;;4.93;4.15;;;;;;;26.33;30.41;96399.53;5063647;28;20083;-55
2022/05/22 07:50:57;;;;;;;4.72;4.32;;;;;;;26.09;30.43;96353.38;5063200;28;20056;-55
2022/05/22 07:53:25;;;;;;;6.22;4.53;;;;;;;26.37;30.23;96398.03;5041827;28;20622;-55
2022/05/22 07:55:52;;;;;;;4.78;4.47;;;;;;;26.36;30.60;96398.53;5045271;28;20045;-55
2022/05/22 07:58:23;;;;;;;4.90;4.50;;;;;;;26.37;30.34;96405.78;5047400;28;20061;-55
2022/05/22 08:00:51;;;;;;;5.15;4.82;;;;;;;25.99;30.52;96377.44;5031243;28;20056;-55
2022/05/22 08:03:19;;;;;;;5.35;4.28;;;;;;;26.01;31.00;96403.31;5047387;28;20618;-54
2022/05/22 08:05:47;;;;;;;11.57;4.60;;;;;;;25.81;31.54;96384.09;5047267;28;20056;-57
2022/05/22 08:08:14;;;;;;;6.88;4.45;;;;;;;25.43;31.46;96357.78;5047293;28;20478;-54
2022/05/22 08:10:41;;;;;;;4.50;4.10;;;;;;;25.84;31.07;96399.34;5047482;28;20915;-54
2022/05/22 08:13:10;;;;;;;4.28;3.97;;;;;;;25.77;31.83;96382.69;5046160;28;20049;-55
2022/05/22 08:15:38;;;;;;;4.75;4.35;;;;;;;25.77;31.75;96399.72;5046711;28;20055;-56
2022/05/22 08:18:09;;;;;;;4.68;4.38;;;;;;;25.88;31.92;96388.56;5045833;28;20131;-57
2022/05/22 08:20:38;;;;;;;5.90;4.35;;;;;;;25.93;31.67;96351.00;5047048;28;20068;-57
2022/05/22 08:23:08;;;;;;;8.98;5.00;;;;;;;26.09;30.14;96370.44;5047067;28;20164;-56
2022/05/22 08:25:35;;;;;;;5.30;4.45;;;;;;;26.13;30.84;96402.25;5047102;28;20057;-54
2022/05/22 08:28:04;;;;;;;6.18;4.40;;;;;;;26.23;31.20;96381.00;5046374;28;20515;-55
2022/05/22 08:30:32;;;;;;;4.63;4.40;;;;;;;26.33;30.38;96379.63;5046545;28;20053;-54
2022/05/22 08:32:59;;;;;;;4.95;4.40;;;;;;;26.48;30.06;96374.72;5045385;28;20060;-56
2022/05/22 08:35:31;;;;;;;7.20;4.28;;;;;;;26.62;30.51;96373.91;5045336;28;20557;-55
2022/05/22 08:37:59;;;;;;;4.90;4.38;;;;;;;26.73;29.70;96369.22;5046842;28;20458;-55
2022/05/22 08:40:33;;;;;;;5.00;4.57;;;;;;;26.61;29.10;96389.41;5047053;28;20083;-57
2022/05/22 08:43:23;;;;;;;4.55;4.22;;;;;;;26.30;29.08;96391.97;5046901;28;20583;-54
2022/05/22 08:46:02;;;;;;;5.03;4.32;;;;;;;26.28;28.59;96380.31;5046202;28;20587;-55
2022/05/22 08:48:42;;;;;;;4.05;3.75;;;;;;;26.30;29.58;96374.94;5046451;28;20518;-55
2022/05/22 08:51:15;;;;;;;4.75;4.22;;;;;;;25.97;29.72;96301.28;5046661;28;20456;-56
2022/05/22 08:53:50;;;;;;;4.75;4.35;;;;;;;26.25;29.37;96355.75;5053364;28;20487;-55
2022/05/22 08:59:31;;;;;;;4.72;4.28;;;;;;;26.26;29.44;96357.28;5067060;28;20048;-55
2022/05/22 09:02:42;;;;;;;4.72;4.32;;;;;;;26.23;29.02;96363.97;5066154;28;20052;-59
2022/05/22 09:05:20;;;;;;;4.43;4.13;;;;;;;26.50;29.67;96355.13;5001837;28;20045;-57
2022/05/22 09:08:06;;;;;;;4.53;4.25;;;;;;;26.77;29.76;96351.19;5058021;28;20072;-56
2022/05/22 09:10:51;;;;;;;4.60;4.30;;;;;;;26.87;29.27;96366.84;5066485;28;20056;-58
2022/05/22 09:13:39;;;;;;;5.05;4.70;;;;;;;26.93;30.12;96354.28;5066719;28;20075;-58
2022/05/22 09:16:19;;;;;;;6.40;5.80;;;;;;;26.98;30.09;96350.75;5065322;28;20061;-56
2022/05/22 09:19:06;;;;;;;5.03;4.70;;;;;;;26.72;29.67;96315.72;5064143;28;20057;-54
2022/05/22 09:21:47;;;;;;;4.95;4.57;;;;;;;26.84;30.08;96362.94;5064184;28;20053;-56
2022/05/22 09:24:46;;;;;;;5.32;4.82;;;;;;;26.74;29.79;96370.00;5063410;28;20419;-58
2022/05/22 09:27:17;;;;;;;6.70;5.53;;;;;;;26.79;30.05;96369.31;5052564;28;20503;-55
2022/05/22 09:30:02;;;;;;;4.38;4.07;;;;;;;26.53;29.98;96363.47;5065052;28;20056;-57
2022/05/22 09:33:06;;;;;;;5.13;4.82;;;;;;;26.22;30.64;96316.97;5065636;28;20045;-57
2022/05/22 09:35:38;;;;;;;;;;;;;;;26.44;30.82;96359.94;5066204;28;20443;-56
2022/05/22 09:38:35;;;;;;;5.28;4.88;;;;;;;25.82;31.14;96272.13;5048158;28;19936;-55
2022/05/22 09:41:02;;;;;;;4.85;4.55;;;;;;;26.44;31.09;96362.78;5065894;28;20056;-56
2022/05/22 09:44:11;;;;;;;4.55;4.30;;;;;;;26.32;31.57;96363.88;5048030;28;20052;-56
2022/05/22 09:46:58;;;;;;;4.97;4.40;;;;;;;26.40;31.49;96350.81;5065444;28;20487;-55
2022/05/22 09:50:02;;;;;;;5.05;4.40;;;;;;;26.40;30.54;96350.81;5065657;28;20134;-55
2022/05/22 09:52:43;;;;;;;5.10;4.63;;;;;;;26.38;29.87;96354.16;5065188;28;20052;-55
2022/05/22 09:55:10;;;;;;;4.72;4.32;;;;;;;26.33;29.47;96352.03;5065267;28;20657;-55
2022/05/22 09:57:49;;;;;;;5.32;4.82;;;;;;;26.47;29.03;96344.75;5065253;28;20121;-55
2022/05/22 10:00:18;;;;;;;4.82;4.53;;;;;;;26.23;29.95;96295.81;5048277;28;20083;-54
2022/05/22 10:02:58;;;;;;;4.70;4.43;;;;;;;26.60;31.38;96348.81;5065082;28;20048;-57
2022/05/22 10:05:33;;;;;;;4.72;4.32;;;;;;;26.46;31.47;96314.78;5065129;28;20063;-54
2022/05/22 10:08:12;;;;;;;4.70;4.30;;;;;;;26.63;30.14;96341.41;5047342;28;20558;-54
2022/05/22 10:11:21;;;;;;;5.68;5.03;;;;;;;26.70;30.21;96323.94;5065354;28;20068;-55
2022/05/22 10:14:15;;;;;;;5.13;4.72;;;;;;;27.05;29.45;96338.94;4983741;28;20058;-59
2022/05/22 10:16:42;;;;;;;4.35;4.15;;;;;;;27.11;30.04;96339.78;5064214;28;20067;-56
2022/05/22 10:19:17;;;;;;;5.00;4.57;;;;;;;27.24;31.18;96334.53;5064248;28;20109;-53
2022/05/22 10:22:26;;;;;;;5.28;4.97;;;;;;;27.22;29.86;96354.16;5064688;28;20067;-53
2022/05/22 10:25:00;;;;;;;4.90;4.50;;;;;;;27.36;31.50;96341.94;5054096;28;20056;-55
2022/05/22 10:27:58;;;;;;;4.65;4.38;;;;;;;27.27;32.20;96339.25;5065405;28;20052;-54
2022/05/22 10:30:36;;;;;;;5.45;4.88;;;;;;;26.98;31.88;96282.50;5047320;28;20057;-56
2022/05/22 10:33:13;;;;;;;4.78;4.38;;;;;;;27.63;32.20;96321.59;5046775;28;20056;-55
2022/05/22 10:35:59;;;;;;;5.60;5.10;;;;;;;28.00;30.73;96319.69;5064517;28;20434;-55
2022/05/22 10:38:32;;;;;;;4.82;4.63;;;;;;;28.59;31.28;96316.31;5064250;28;20533;-55
2022/05/22 10:44:06;;;;;;;5.72;5.38;;;;;;;29.30;30.08;96250.38;5064822;28;20045;-55
2022/05/22 10:46:49;;;;;;;8.10;5.38;;;;;;;29.86;29.51;96314.91;5046737;28;20054;-55
2022/05/22 10:49:19;;;;;;;6.30;5.72;;;;;;;30.04;28.37;96280.16;5064225;28;20060;-55
2022/05/22 10:52:00;;;;;;;5.80;5.40;;;;;;;30.30;27.76;96320.75;5063642;28;20060;-58
2022/05/22 10:54:33;;;;;;;6.03;5.53;;;;;;;29.95;28.02;96303.28;5063682;28;20055;-56
2022/05/22 10:57:13;;;;;;;6.00;5.70;;;;;;;30.19;27.76;96297.06;5064210;28;20526;-55
2022/05/22 10:59:40;;;;;;;5.90;5.47;;;;;;;30.58;28.27;96295.78;5065953;28;20502;-55
2022/05/22 11:02:18;;;;;;;6.20;5.80;;;;;;;31.03;28.20;96292.88;5045337;28;20056;-56
2022/05/22 11:04:46;;;;;;;5.53;5.22;;;;;;;31.28;26.89;96278.22;5045725;28;20084;-55
2022/05/22 11:07:25;;;;;;;5.75;5.45;;;;;;;31.15;27.12;96274.38;5064431;28;20048;-56
2022/05/22 11:09:51;;;;;;;5.18;4.85;;;;;;;30.95;27.18;96284.81;5063670;28;20048;-55
2022/05/22 11:12:22;;;;;;;6.90;5.47;;;;;;;29.69;27.39;96271.28;5046132;28;20055;-55
2022/05/22 11:14:48;;;;;;;5.90;5.50;;;;;;;29.78;27.27;96273.91;5063430;28;20518;-56
2022/05/22 11:17:18;;;;;;;5.65;5.35;;;;;;;29.54;28.13;96284.97;5063797;28;20056;-59
2022/05/22 11:19:47;;;;;;;6.13;5.72;;;;;;;29.36;28.87;96294.78;5063586;28;20113;-55
2022/05/22 11:22:37;;;;;;;5.95;5.18;;;;;;;29.16;29.55;96297.00;5063457;28;20460;-55
2022/05/22 11:25:27;;;;;;;5.68;5.13;;;;;;;29.01;29.78;96284.97;5063401;28;20554;-56
2022/05/22 11:28:02;;;;;;;5.53;5.03;;;;;;;28.66;29.86;96284.50;5064097;28;20525;-55
2022/05/22 11:30:32;;;;;;;6.28;5.70;;;;;;;28.52;30.53;96277.66;5045849;28;20052;-55
2022/05/22 11:33:28;;;;;;;5.72;5.30;;;;;;;28.52;29.66;96282.59;5045830;28;20059;-58
2022/05/22 11:36:13;;;;;;;6.25;5.75;;;;;;;28.34;30.32;96234.50;5055465;28;20419;-59
2022/05/22 11:38:55;;;;;;;6.22;5.78;;;;;;;28.59;30.07;96260.13;5063554;28;20349;-55
2022/05/22 11:41:28;;;;;;;5.90;5.50;;;;;;;28.74;30.33;96265.66;5045039;28;20044;-55
2022/05/22 11:44:22;;;;;;;5.55;5.13;;;;;;;28.48;29.92;96270.66;5063010;28;20572;-54
2022/05/22 11:47:15;;;;;;;6.00;5.60;;;;;;;28.59;30.06;96247.91;5062827;28;20048;-54
2022/05/22 11:50:10;;;;;;;5.30;4.83;;;;;;;28.41;30.55;96271.06;5063385;28;20451;-55
2022/05/22 11:53:14;;;;;;;5.30;5.07;;;;;;;28.18;30.05;96261.59;5053290;28;20064;-56
2022/05/22 11:56:09;;;;;;;5.78;5.35;;;;;;;28.16;29.28;96249.91;5045308;28;20067;-55
2022/05/22 11:58:45;;;;;;;6.70;4.82;;;;;;;27.77;30.42;96251.63;5045538;28;20342;-55
2022/05/22 12:01:21;;;;;;;7.78;5.00;;;;;;;27.67;30.27;96248.16;5044779;28;20773;-56
2022/05/22 12:04:01;;;;;;;8.00;4.93;;;;;;;27.29;31.44;96268.44;5045110;28;20117;-56
2022/05/22 12:06:45;;;;;;;8.20;5.03;;;;;;;27.06;31.31;96255.22;5063607;28;20106;-55
2022/05/22 12:09:41;;;;;;;5.15;4.85;;;;;;;27.15;31.11;96257.91;5062911;28;20045;-54
2022/05/22 12:12:46;;;;;;;5.50;5.20;;;;;;;27.14;31.13;96256.31;5063231;28;20056;-54
2022/05/22 12:15:23;;;;;;;5.22;4.90;;;;;;;27.14;31.29;96250.63;5044606;28;20510;-55